sensor_id;sensor_type;location;lat;lon;timestamp;temperature;humidity
53272;DHT22;39160;48.580;7.756;2022-07-24T00:03:39;26.10;68.40
53272;DHT22;39160;48.580;7.756;2022-07-24T00:08:29;26.10;68.70
53272;DHT22;39160;48.580;7.756;2022-07-24T00:13:20;26.30;68.50
53272;DHT22;39160;48.580;7.756;2022-07-24T00:18:11;26.40;68.60
53272;DHT22;39160;48.580;7.756;2022-07-24T00:23:01;26.30;68.60
53272;DHT22;39160;48.580;7.756;2022-07-24T00:27:52;26.30;68.80
53272;DHT22;39160;48.580;7.756;2022-07-24T00:32:42;26.10;68.90
53272;DHT22;39160;48.580;7.756;2022-07-24T00:37:33;26.10;69.10
53272;DHT22;39160;48.580;7.756;2022-07-24T00:42:24;26.10;69.00
53272;DHT22;39160;48.580;7.756;2022-07-24T00:47:14;26.10;69.00
53272;DHT22;39160;48.580;7.756;2022-07-24T00:52:05;26.10;69.20
53272;DHT22;39160;48.580;7.756;2022-07-24T00:56:56;26.10;69.20
53272;DHT22;39160;48.580;7.756;2022-07-24T01:01:47;26.10;69.50
53272;DHT22;39160;48.580;7.756;2022-07-24T01:06:43;25.90;69.60
53272;DHT22;39160;48.580;7.756;2022-07-24T01:11:34;25.80;70.10
53272;DHT22;39160;48.580;7.756;2022-07-24T01:16:24;25.80;70.20
53272;DHT22;39160;48.580;7.756;2022-07-24T01:21:15;25.80;70.20
53272;DHT22;39160;48.580;7.756;2022-07-24T01:26:07;25.80;70.20
53272;DHT22;39160;48.580;7.756;2022-07-24T01:30:57;25.90;70.30
53272;DHT22;39160;48.580;7.756;2022-07-24T01:35:48;25.80;70.90
53272;DHT22;39160;48.580;7.756;2022-07-24T01:40:39;25.80;71.60
53272;DHT22;39160;48.580;7.756;2022-07-24T01:45:30;25.80;71.60
53272;DHT22;39160;48.580;7.756;2022-07-24T01:50:21;25.80;72.10
53272;DHT22;39160;48.580;7.756;2022-07-24T01:55:12;25.80;72.50
53272;DHT22;39160;48.580;7.756;2022-07-24T02:00:04;25.70;73.00
53272;DHT22;39160;48.580;7.756;2022-07-24T02:04:56;25.50;73.50
53272;DHT22;39160;48.580;7.756;2022-07-24T02:09:46;25.50;74.00
53272;DHT22;39160;48.580;7.756;2022-07-24T02:14:37;25.50;74.20
53272;DHT22;39160;48.580;7.756;2022-07-24T02:19:28;25.50;74.60
53272;DHT22;39160;48.580;7.756;2022-07-24T02:24:18;25.40;75.00
53272;DHT22;39160;48.580;7.756;2022-07-24T02:29:09;25.30;75.30
53272;DHT22;39160;48.580;7.756;2022-07-24T02:34:00;25.20;75.70
53272;DHT22;39160;48.580;7.756;2022-07-24T02:38:50;25.20;76.10
53272;DHT22;39160;48.580;7.756;2022-07-24T02:43:41;25.20;76.50
53272;DHT22;39160;48.580;7.756;2022-07-24T02:48:32;25.30;76.70
53272;DHT22;39160;48.580;7.756;2022-07-24T02:53:22;25.10;77.30
53272;DHT22;39160;48.580;7.756;2022-07-24T02:58:13;25.10;77.80
53272;DHT22;39160;48.580;7.756;2022-07-24T03:03:04;25.00;78.20
53272;DHT22;39160;48.580;7.756;2022-07-24T03:07:55;25.00;78.60
53272;DHT22;39160;48.580;7.756;2022-07-24T03:12:45;24.90;79.20
53272;DHT22;39160;48.580;7.756;2022-07-24T03:17:36;24.90;79.80
53272;DHT22;39160;48.580;7.756;2022-07-24T03:22:27;24.90;80.20
53272;DHT22;39160;48.580;7.756;2022-07-24T03:27:18;24.70;80.70
53272;DHT22;39160;48.580;7.756;2022-07-24T03:32:08;24.60;81.20
53272;DHT22;39160;48.580;7.756;2022-07-24T03:36:59;24.70;81.60
53272;DHT22;39160;48.580;7.756;2022-07-24T03:41:50;24.60;81.90
53272;DHT22;39160;48.580;7.756;2022-07-24T03:46:40;24.50;82.60
53272;DHT22;39160;48.580;7.756;2022-07-24T03:51:31;24.50;82.80
53272;DHT22;39160;48.580;7.756;2022-07-24T03:56:22;24.40;83.20
53272;DHT22;39160;48.580;7.756;2022-07-24T04:01:13;24.30;83.60
53272;DHT22;39160;48.580;7.756;2022-07-24T04:06:05;24.20;84.20
53272;DHT22;39160;48.580;7.756;2022-07-24T04:10:56;24.10;85.00
53272;DHT22;39160;48.580;7.756;2022-07-24T04:15:47;24.00;85.70
53272;DHT22;39160;48.580;7.756;2022-07-24T04:20:38;23.90;86.30
53272;DHT22;39160;48.580;7.756;2022-07-24T04:25:28;24.00;86.70
53272;DHT22;39160;48.580;7.756;2022-07-24T04:30:19;23.90;87.20
53272;DHT22;39160;48.580;7.756;2022-07-24T04:35:10;24.00;87.80
53272;DHT22;39160;48.580;7.756;2022-07-24T04:40:00;24.00;87.90
53272;DHT22;39160;48.580;7.756;2022-07-24T04:44:51;24.10;88.50
53272;DHT22;39160;48.580;7.756;2022-07-24T04:49:42;24.10;89.10
53272;DHT22;39160;48.580;7.756;2022-07-24T04:54:32;24.00;89.70
53272;DHT22;39160;48.580;7.756;2022-07-24T04:59:23;24.10;90.10
53272;DHT22;39160;48.580;7.756;2022-07-24T05:04:13;24.10;90.20
53272;DHT22;39160;48.580;7.756;2022-07-24T05:09:04;23.90;90.40
53272;DHT22;39160;48.580;7.756;2022-07-24T05:13:55;24.00;90.50
53272;DHT22;39160;48.580;7.756;2022-07-24T05:18:46;24.10;90.50
53272;DHT22;39160;48.580;7.756;2022-07-24T05:23:36;24.10;90.60
53272;DHT22;39160;48.580;7.756;2022-07-24T05:28:27;24.00;90.60
53272;DHT22;39160;48.580;7.756;2022-07-24T05:33:18;24.10;90.70
53272;DHT22;39160;48.580;7.756;2022-07-24T05:38:08;24.30;90.60
53272;DHT22;39160;48.580;7.756;2022-07-24T05:42:59;24.40;90.40
53272;DHT22;39160;48.580;7.756;2022-07-24T05:47:49;24.60;90.40
53272;DHT22;39160;48.580;7.756;2022-07-24T05:52:41;24.60;90.20
53272;DHT22;39160;48.580;7.756;2022-07-24T05:57:32;24.60;90.20
53272;DHT22;39160;48.580;7.756;2022-07-24T06:02:23;24.70;90.10
53272;DHT22;39160;48.580;7.756;2022-07-24T06:07:13;24.70;90.10
53272;DHT22;39160;48.580;7.756;2022-07-24T06:12:04;24.90;90.00
53272;DHT22;39160;48.580;7.756;2022-07-24T06:16:55;25.10;89.90
53272;DHT22;39160;48.580;7.756;2022-07-24T06:21:46;25.10;89.90
53272;DHT22;39160;48.580;7.756;2022-07-24T06:26:36;25.10;90.00
53272;DHT22;39160;48.580;7.756;2022-07-24T06:31:27;25.20;90.20
53272;DHT22;39160;48.580;7.756;2022-07-24T06:36:18;25.30;90.20
53272;DHT22;39160;48.580;7.756;2022-07-24T06:41:08;25.50;90.10
53272;DHT22;39160;48.580;7.756;2022-07-24T06:45:59;25.60;90.10
53272;DHT22;39160;48.580;7.756;2022-07-24T06:50:49;25.70;90.10
53272;DHT22;39160;48.580;7.756;2022-07-24T06:55:40;25.50;90.30
53272;DHT22;39160;48.580;7.756;2022-07-24T07:00:31;25.80;90.10
53272;DHT22;39160;48.580;7.756;2022-07-24T07:05:21;25.90;90.10
53272;DHT22;39160;48.580;7.756;2022-07-24T07:10:14;25.80;90.10
53272;DHT22;39160;48.580;7.756;2022-07-24T07:15:05;26.00;89.90
53272;DHT22;39160;48.580;7.756;2022-07-24T07:19:56;26.10;89.70
53272;DHT22;39160;48.580;7.756;2022-07-24T07:24:46;26.10;89.60
53272;DHT22;39160;48.580;7.756;2022-07-24T07:29:37;26.00;89.50
53272;DHT22;39160;48.580;7.756;2022-07-24T07:34:27;26.20;89.10
53272;DHT22;39160;48.580;7.756;2022-07-24T07:39:18;26.30;88.70
53272;DHT22;39160;48.580;7.756;2022-07-24T07:44:09;26.20;88.70
53272;DHT22;39160;48.580;7.756;2022-07-24T07:48:59;26.20;88.60
53272;DHT22;39160;48.580;7.756;2022-07-24T07:53:50;26.30;88.50
53272;DHT22;39160;48.580;7.756;2022-07-24T07:58:41;26.30;88.00
53272;DHT22;39160;48.580;7.756;2022-07-24T08:03:31;26.40;87.80
53272;DHT22;39160;48.580;7.756;2022-07-24T08:08:22;26.50;87.40
53272;DHT22;39160;48.580;7.756;2022-07-24T08:13:13;26.70;87.10
53272;DHT22;39160;48.580;7.756;2022-07-24T08:18:05;26.80;86.80
53272;DHT22;39160;48.580;7.756;2022-07-24T08:22:56;27.00;86.30
53272;DHT22;39160;48.580;7.756;2022-07-24T08:27:46;27.20;85.80
53272;DHT22;39160;48.580;7.756;2022-07-24T08:32:37;27.30;85.40
53272;DHT22;39160;48.580;7.756;2022-07-24T08:37:28;27.40;85.10
53272;DHT22;39160;48.580;7.756;2022-07-24T08:42:19;27.50;84.90
53272;DHT22;39160;48.580;7.756;2022-07-24T08:47:10;27.70;84.20
53272;DHT22;39160;48.580;7.756;2022-07-24T08:52:03;27.70;84.00
53272;DHT22;39160;48.580;7.756;2022-07-24T08:56:55;27.90;83.20
53272;DHT22;39160;48.580;7.756;2022-07-24T09:01:47;27.80;83.20
53272;DHT22;39160;48.580;7.756;2022-07-24T09:06:56;27.80;83.00
53272;DHT22;39160;48.580;7.756;2022-07-24T09:11:47;27.90;82.30
53272;DHT22;39160;48.580;7.756;2022-07-24T09:16:38;28.00;82.00
53272;DHT22;39160;48.580;7.756;2022-07-24T09:21:32;28.10;81.30
53272;DHT22;39160;48.580;7.756;2022-07-24T09:26:23;28.30;80.60
53272;DHT22;39160;48.580;7.756;2022-07-24T09:31:14;28.30;80.30
53272;DHT22;39160;48.580;7.756;2022-07-24T09:36:12;28.30;80.30
53272;DHT22;39160;48.580;7.756;2022-07-24T09:41:03;28.40;78.70
53272;DHT22;39160;48.580;7.756;2022-07-24T09:46:05;28.50;78.40
53272;DHT22;39160;48.580;7.756;2022-07-24T09:50:59;28.80;77.40
53272;DHT22;39160;48.580;7.756;2022-07-24T09:56:08;28.80;76.80
53272;DHT22;39160;48.580;7.756;2022-07-24T10:00:59;28.90;76.00
53272;DHT22;39160;48.580;7.756;2022-07-24T10:05:54;28.80;76.00
53272;DHT22;39160;48.580;7.756;2022-07-24T10:10:45;28.80;75.60
53272;DHT22;39160;48.580;7.756;2022-07-24T10:16:31;28.90;74.90
53272;DHT22;39160;48.580;7.756;2022-07-24T10:21:05;29.00;74.10
53272;DHT22;39160;48.580;7.756;2022-07-24T10:26:07;29.10;73.60
53272;DHT22;39160;48.580;7.756;2022-07-24T10:30:58;29.40;73.00
53272;DHT22;39160;48.580;7.756;2022-07-24T10:35:49;29.20;72.80
53272;DHT22;39160;48.580;7.756;2022-07-24T10:40:51;29.20;72.00
53272;DHT22;39160;48.580;7.756;2022-07-24T10:55:47;29.40;69.80
53272;DHT22;39160;48.580;7.756;2022-07-24T11:00:44;29.60;69.50
53272;DHT22;39160;48.580;7.756;2022-07-24T11:06:02;29.70;69.00
53272;DHT22;39160;48.580;7.756;2022-07-24T11:10:54;29.70;68.50
53272;DHT22;39160;48.580;7.756;2022-07-24T11:21:00;29.80;67.60
53272;DHT22;39160;48.580;7.756;2022-07-24T11:31:26;30.20;65.30
53272;DHT22;39160;48.580;7.756;2022-07-24T11:36:17;30.40;65.30
53272;DHT22;39160;48.580;7.756;2022-07-24T11:41:08;30.30;65.10
53272;DHT22;39160;48.580;7.756;2022-07-24T11:45:59;30.30;64.90
53272;DHT22;39160;48.580;7.756;2022-07-24T11:50:49;30.30;64.60
53272;DHT22;39160;48.580;7.756;2022-07-24T11:55:40;30.50;64.10
53272;DHT22;39160;48.580;7.756;2022-07-24T12:00:31;30.80;63.50
53272;DHT22;39160;48.580;7.756;2022-07-24T12:05:36;30.90;63.20
53272;DHT22;39160;48.580;7.756;2022-07-24T12:10:30;31.00;62.60
53272;DHT22;39160;48.580;7.756;2022-07-24T12:15:23;31.00;62.60
53272;DHT22;39160;48.580;7.756;2022-07-24T12:20:15;31.30;62.20
53272;DHT22;39160;48.580;7.756;2022-07-24T12:25:06;31.60;61.80
53272;DHT22;39160;48.580;7.756;2022-07-24T12:29:56;32.20;62.10
53272;DHT22;39160;48.580;7.756;2022-07-24T12:34:48;32.50;61.90
53272;DHT22;39160;48.580;7.756;2022-07-24T12:39:46;32.80;61.80
53272;DHT22;39160;48.580;7.756;2022-07-24T12:44:42;33.30;61.20
53272;DHT22;39160;48.580;7.756;2022-07-24T12:49:43;33.60;60.90
53272;DHT22;39160;48.580;7.756;2022-07-24T12:54:36;33.70;60.30
53272;DHT22;39160;48.580;7.756;2022-07-24T13:04:20;35.00;59.10
53272;DHT22;39160;48.580;7.756;2022-07-24T13:09:13;35.80;57.50
53272;DHT22;39160;48.580;7.756;2022-07-24T13:14:05;36.60;55.80
53272;DHT22;39160;48.580;7.756;2022-07-24T13:18:56;36.70;54.40
53272;DHT22;39160;48.580;7.756;2022-07-24T13:23:47;37.30;53.00
53272;DHT22;39160;48.580;7.756;2022-07-24T13:28:38;37.70;51.10
53272;DHT22;39160;48.580;7.756;2022-07-24T13:33:29;38.20;50.00
53272;DHT22;39160;48.580;7.756;2022-07-24T13:38:19;38.70;48.60
53272;DHT22;39160;48.580;7.756;2022-07-24T13:43:10;39.40;47.50
53272;DHT22;39160;48.580;7.756;2022-07-24T13:48:00;40.40;46.30
53272;DHT22;39160;48.580;7.756;2022-07-24T13:52:51;41.10;45.50
53272;DHT22;39160;48.580;7.756;2022-07-24T13:57:42;41.40;44.70
53272;DHT22;39160;48.580;7.756;2022-07-24T14:02:32;42.00;44.00
53272;DHT22;39160;48.580;7.756;2022-07-24T14:07:23;41.90;43.40
53272;DHT22;39160;48.580;7.756;2022-07-24T14:12:14;42.20;43.00
53272;DHT22;39160;48.580;7.756;2022-07-24T14:17:04;42.40;42.40
53272;DHT22;39160;48.580;7.756;2022-07-24T14:21:55;42.80;41.90
53272;DHT22;39160;48.580;7.756;2022-07-24T14:26:47;42.80;41.50
53272;DHT22;39160;48.580;7.756;2022-07-24T14:31:38;43.10;40.80
53272;DHT22;39160;48.580;7.756;2022-07-24T14:36:29;43.10;40.40
53272;DHT22;39160;48.580;7.756;2022-07-24T14:41:20;43.40;39.90
53272;DHT22;39160;48.580;7.756;2022-07-24T14:46:10;43.50;39.40
53272;DHT22;39160;48.580;7.756;2022-07-24T14:51:05;42.70;39.40
53272;DHT22;39160;48.580;7.756;2022-07-24T14:55:56;42.10;39.40
53272;DHT22;39160;48.580;7.756;2022-07-24T15:00:46;42.00;39.30
53272;DHT22;39160;48.580;7.756;2022-07-24T15:05:39;42.50;38.80
53272;DHT22;39160;48.580;7.756;2022-07-24T15:10:29;42.10;38.80
53272;DHT22;39160;48.580;7.756;2022-07-24T15:15:20;42.40;38.40
53272;DHT22;39160;48.580;7.756;2022-07-24T15:20:11;42.10;38.50
53272;DHT22;39160;48.580;7.756;2022-07-24T15:25:01;42.40;38.20
53272;DHT22;39160;48.580;7.756;2022-07-24T15:29:52;42.60;37.90
53272;DHT22;39160;48.580;7.756;2022-07-24T15:34:43;42.30;37.80
53272;DHT22;39160;48.580;7.756;2022-07-24T15:39:33;42.10;37.90
53272;DHT22;39160;48.580;7.756;2022-07-24T15:44:24;42.20;37.80
53272;DHT22;39160;48.580;7.756;2022-07-24T15:49:15;42.80;37.30
53272;DHT22;39160;48.580;7.756;2022-07-24T15:54:06;43.40;37.40
53272;DHT22;39160;48.580;7.756;2022-07-24T15:58:57;42.40;37.30
53272;DHT22;39160;48.580;7.756;2022-07-24T16:03:47;42.90;37.20
53272;DHT22;39160;48.580;7.756;2022-07-24T16:08:38;42.60;37.00
53272;DHT22;39160;48.580;7.756;2022-07-24T16:13:29;42.70;36.90
53272;DHT22;39160;48.580;7.756;2022-07-24T16:18:20;44.10;36.10
53272;DHT22;39160;48.580;7.756;2022-07-24T16:23:11;45.60;35.20
53272;DHT22;39160;48.580;7.756;2022-07-24T16:28:02;45.80;34.80
53272;DHT22;39160;48.580;7.756;2022-07-24T16:32:53;46.80;34.60
53272;DHT22;39160;48.580;7.756;2022-07-24T16:37:43;47.60;34.60
53272;DHT22;39160;48.580;7.756;2022-07-24T16:42:34;48.00;33.50
53272;DHT22;39160;48.580;7.756;2022-07-24T16:47:25;48.20;33.20
53272;DHT22;39160;48.580;7.756;2022-07-24T16:52:16;48.50;32.80
53272;DHT22;39160;48.580;7.756;2022-07-24T16:57:07;48.10;32.80
53272;DHT22;39160;48.580;7.756;2022-07-24T17:01:57;48.10;32.50
53272;DHT22;39160;48.580;7.756;2022-07-24T17:06:48;48.00;32.20
53272;DHT22;39160;48.580;7.756;2022-07-24T17:11:39;48.20;32.20
53272;DHT22;39160;48.580;7.756;2022-07-24T17:16:30;48.10;31.90
53272;DHT22;39160;48.580;7.756;2022-07-24T17:21:20;48.60;31.70
53272;DHT22;39160;48.580;7.756;2022-07-24T17:26:11;48.80;31.60
53272;DHT22;39160;48.580;7.756;2022-07-24T17:31:02;48.70;31.40
53272;DHT22;39160;48.580;7.756;2022-07-24T17:35:53;46.90;31.80
53272;DHT22;39160;48.580;7.756;2022-07-24T17:40:43;44.60;33.50
53272;DHT22;39160;48.580;7.756;2022-07-24T17:45:34;45.20;32.70
53272;DHT22;39160;48.580;7.756;2022-07-24T17:50:25;45.10;32.90
53272;DHT22;39160;48.580;7.756;2022-07-24T17:55:15;42.90;33.80
53272;DHT22;39160;48.580;7.756;2022-07-24T18:00:09;40.50;35.50
53272;DHT22;39160;48.580;7.756;2022-07-24T18:05:01;38.90;36.70
53272;DHT22;39160;48.580;7.756;2022-07-24T18:09:52;37.70;37.50
53272;DHT22;39160;48.580;7.756;2022-07-24T18:14:42;37.00;38.00
53272;DHT22;39160;48.580;7.756;2022-07-24T18:19:33;36.50;38.50
53272;DHT22;39160;48.580;7.756;2022-07-24T18:24:24;36.30;38.70
53272;DHT22;39160;48.580;7.756;2022-07-24T18:29:14;36.00;39.10
53272;DHT22;39160;48.580;7.756;2022-07-24T18:34:05;35.70;39.50
53272;DHT22;39160;48.580;7.756;2022-07-24T18:38:56;35.50;39.90
53272;DHT22;39160;48.580;7.756;2022-07-24T18:43:47;35.30;40.20
53272;DHT22;39160;48.580;7.756;2022-07-24T18:48:37;35.10;40.60
53272;DHT22;39160;48.580;7.756;2022-07-24T18:53:32;34.90;40.90
53272;DHT22;39160;48.580;7.756;2022-07-24T18:58:23;34.70;41.10
53272;DHT22;39160;48.580;7.756;2022-07-24T19:03:14;34.50;41.50
53272;DHT22;39160;48.580;7.756;2022-07-24T19:08:05;34.50;41.80
53272;DHT22;39160;48.580;7.756;2022-07-24T19:12:56;34.30;42.00
53272;DHT22;39160;48.580;7.756;2022-07-24T19:17:47;34.20;42.20
53272;DHT22;39160;48.580;7.756;2022-07-24T19:22:38;33.90;42.60
53272;DHT22;39160;48.580;7.756;2022-07-24T19:27:29;33.80;43.00
53272;DHT22;39160;48.580;7.756;2022-07-24T19:32:21;33.50;43.70
53272;DHT22;39160;48.580;7.756;2022-07-24T19:37:11;33.40;44.20
53272;DHT22;39160;48.580;7.756;2022-07-24T19:42:02;33.20;44.40
53272;DHT22;39160;48.580;7.756;2022-07-24T19:46:53;33.10;44.80
53272;DHT22;39160;48.580;7.756;2022-07-24T19:51:44;33.00;44.80
53272;DHT22;39160;48.580;7.756;2022-07-24T19:56:34;32.90;45.20
53272;DHT22;39160;48.580;7.756;2022-07-24T20:01:25;32.90;45.50
53272;DHT22;39160;48.580;7.756;2022-07-24T20:06:16;32.90;45.70
53272;DHT22;39160;48.580;7.756;2022-07-24T20:11:06;32.70;46.60
53272;DHT22;39160;48.580;7.756;2022-07-24T20:15:58;32.60;46.10
53272;DHT22;39160;48.580;7.756;2022-07-24T20:20:49;32.60;46.50
53272;DHT22;39160;48.580;7.756;2022-07-24T20:25:40;32.50;46.70
53272;DHT22;39160;48.580;7.756;2022-07-24T20:30:30;32.40;46.90
53272;DHT22;39160;48.580;7.756;2022-07-24T20:35:21;32.50;47.40
53272;DHT22;39160;48.580;7.756;2022-07-24T20:40:12;32.40;47.50
53272;DHT22;39160;48.580;7.756;2022-07-24T20:45:04;32.20;47.90
53272;DHT22;39160;48.580;7.756;2022-07-24T20:49:56;32.10;48.10
53272;DHT22;39160;48.580;7.756;2022-07-24T20:54:46;32.00;48.20
53272;DHT22;39160;48.580;7.756;2022-07-24T20:59:37;31.80;48.20
53272;DHT22;39160;48.580;7.756;2022-07-24T21:04:28;31.60;48.40
53272;DHT22;39160;48.580;7.756;2022-07-24T21:09:19;31.70;48.50
53272;DHT22;39160;48.580;7.756;2022-07-24T21:14:10;31.70;48.70
53272;DHT22;39160;48.580;7.756;2022-07-24T21:19:00;31.70;48.80
53272;DHT22;39160;48.580;7.756;2022-07-24T21:23:51;31.60;49.10
53272;DHT22;39160;48.580;7.756;2022-07-24T21:28:42;31.50;49.20
53272;DHT22;39160;48.580;7.756;2022-07-24T21:33:33;31.50;49.60
53272;DHT22;39160;48.580;7.756;2022-07-24T21:38:23;31.40;49.70
53272;DHT22;39160;48.580;7.756;2022-07-24T21:43:17;31.40;50.00
53272;DHT22;39160;48.580;7.756;2022-07-24T21:48:07;31.50;50.20
53272;DHT22;39160;48.580;7.756;2022-07-24T21:52:58;31.40;50.50
53272;DHT22;39160;48.580;7.756;2022-07-24T21:57:49;31.30;50.70
53272;DHT22;39160;48.580;7.756;2022-07-24T22:02:40;31.10;50.70
53272;DHT22;39160;48.580;7.756;2022-07-24T22:07:30;31.00;51.10
53272;DHT22;39160;48.580;7.756;2022-07-24T22:12:21;30.90;51.10
53272;DHT22;39160;48.580;7.756;2022-07-24T22:17:12;30.90;51.10
53272;DHT22;39160;48.580;7.756;2022-07-24T22:22:02;31.00;51.20
53272;DHT22;39160;48.580;7.756;2022-07-24T22:26:53;30.90;51.30
53272;DHT22;39160;48.580;7.756;2022-07-24T22:31:44;30.80;51.50
53272;DHT22;39160;48.580;7.756;2022-07-24T22:36:35;30.70;51.70
53272;DHT22;39160;48.580;7.756;2022-07-24T22:41:30;30.70;52.00
53272;DHT22;39160;48.580;7.756;2022-07-24T22:46:21;30.40;52.70
53272;DHT22;39160;48.580;7.756;2022-07-24T22:51:12;30.20;53.00
53272;DHT22;39160;48.580;7.756;2022-07-24T22:56:03;30.00;53.20
53272;DHT22;39160;48.580;7.756;2022-07-24T23:00:54;29.80;53.80
53272;DHT22;39160;48.580;7.756;2022-07-24T23:05:45;29.80;53.80
53272;DHT22;39160;48.580;7.756;2022-07-24T23:10:37;29.80;53.90
53272;DHT22;39160;48.580;7.756;2022-07-24T23:15:27;29.90;54.10
53272;DHT22;39160;48.580;7.756;2022-07-24T23:20:19;29.60;54.10
53272;DHT22;39160;48.580;7.756;2022-07-24T23:25:11;29.60;54.20
53272;DHT22;39160;48.580;7.756;2022-07-24T23:30:02;29.70;54.30
53272;DHT22;39160;48.580;7.756;2022-07-24T23:34:53;29.80;54.30
53272;DHT22;39160;48.580;7.756;2022-07-24T23:39:44;29.60;54.60
53272;DHT22;39160;48.580;7.756;2022-07-24T23:44:36;29.50;54.60
53272;DHT22;39160;48.580;7.756;2022-07-24T23:49:27;29.60;54.90
53272;DHT22;39160;48.580;7.756;2022-07-24T23:54:18;29.70;54.90
53272;DHT22;39160;48.580;7.756;2022-07-24T23:59:09;29.70;54.90
